This is the latest recevied weather packets stored in our database for station/object K4DNM. If no packets are shown the sender has not sent any weather packets the latest 10 day(s).
| Time | Temp. | Humidity | Pressure | Rain* | Wind** | Luminosity | Snow |
|---|---|---|---|---|---|---|---|
| 1777981387 | 14.44° C | 81% | 1016.5 hPa | 0 mm | - | 137 W/m² | - |
| 1777981088 | 14.44° C | 81% | 1016.4 hPa | 0 mm | - | 112 W/m² | - |
| 1777980788 | 14.44° C | 84% | 1016.4 hPa | 0 mm | - | 107 W/m² | - |
| 1777980489 | 13.33° C | 86% | 1016.3 hPa | 0 mm | - | 97 W/m² | - |
| 1777980189 | 12.78° C | 87% | 1016.3 hPa | 0 mm | - | 86 W/m² | - |
| 1777979888 | 12.22° C | 91% | 1016.3 hPa | 0 mm | - | 75 W/m² | - |
| 1777979589 | 11.67° C | 93% | 1016.2 hPa | 0 mm | - | 59 W/m² | - |
| 1777979288 | 11.11° C | 93% | 1016.2 hPa | 0 mm | - | 41 W/m² | - |
| 1777978987 | 11.11° C | 93% | 1016.1 hPa | 0 mm | - | 33 W/m² | - |
| 1777978688 | 10.56° C | 93% | 1016 hPa | 0 mm | - | 28 W/m² | - |
| 1777978375 | 10.56° C | 93% | 1015.9 hPa | 0 mm | - | 21 W/m² | - |
| 1777978075 | 10.56° C | 93% | 1015.9 hPa | 0 mm | - | 15 W/m² | - |
| 1777977837 | 10.56° C | 93% | 1015.9 hPa | 0 mm | - | 13 W/m² | - |
| 1777977460 | 10.56° C | 93% | 1015.7 hPa | 0 mm | - | 10 W/m² | - |
| 1777977163 | 10.56° C | 92% | 1015.7 hPa | 0 mm | - | 8 W/m² | - |
| 1777976860 | 10.56° C | 92% | 1015.6 hPa | 0 mm | - | 5 W/m² | - |
| 1777976545 | 10.56° C | 92% | 1015.5 hPa | 0 mm | - | 3 W/m² | - |
| 1777976246 | 10.56° C | 91% | 1015.5 hPa | 0 mm | - | 2 W/m² | - |
| 1777975945 | 10.56° C | 91% | 1015.4 hPa | 0 mm | - | 0 W/m² | - |
| 1777975645 | 10.56° C | 91% | 1015.4 hPa | 0 mm | - | 0 W/m² | - |
| 1777975346 | 10.56° C | 91% | 1015.3 hPa | 0 mm | - | 0 W/m² | - |
| 1777975106 | 11.11° C | 90% | 1015.3 hPa | 0 mm | - | 0 W/m² | - |
| 1777974730 | 11.11° C | 89% | 1015.3 hPa | 0 mm | - | 0 W/m² | - |
| 1777974430 | 11.11° C | 89% | 1015.3 hPa | 0 mm | - | 0 W/m² | - |
| 1777974133 | 11.11° C | 89% | 1015.3 hPa | 0 mm | - | 0 W/m² | - |
* Rain latest hour (hover to see other rain measurements)
** Current wind speed in m/s (hover to see current wind gust speed)